Time;durP1;ratioP1;P1;durP2;ratioP2;P2;SDS_P1;SDS_P2;PMS_P1;PMS_P2;Temp;Humidity;BMP_temperature;BMP_pressure;BME280_temperature;BME280_humidity;BME280_pressure;Samples;Min_cycle;Max_cycle;Signal;HPM_P1;HPM_P2
2023/05/03 00:02:04;;;;;;;0.98;0.98;;;19.40;84.70;;;;;;5003510;28;20029;-80
2023/05/03 00:04:30;;;;;;;1.10;1.08;;;19.40;84.60;;;;;;5003032;28;20113;-79
2023/05/03 00:06:56;;;;;;;1.00;1.00;;;19.40;84.70;;;;;;5003224;28;20045;-79
2023/05/03 00:09:22;;;;;;;1.25;1.17;;;19.40;84.70;;;;;;5002623;28;20026;-79
2023/05/03 00:11:47;;;;;;;2.03;1.38;;;19.40;84.70;;;;;;5000543;28;20053;-79
2023/05/03 00:14:13;;;;;;;0.85;0.85;;;19.40;84.70;;;;;;4998902;28;20053;-79
2023/05/03 00:16:39;;;;;;;0.80;0.80;;;19.40;84.70;;;;;;5003954;28;20104;-79
2023/05/03 00:19:04;;;;;;;1.30;1.20;;;19.40;84.80;;;;;;5004510;28;20578;-79
2023/05/03 00:21:30;;;;;;;1.23;1.13;;;19.30;84.70;;;;;;5004961;28;20426;-79
2023/05/03 00:23:56;;;;;;;1.20;1.20;;;19.30;84.60;;;;;;5000656;28;20041;-79
2023/05/03 00:26:21;;;;;;;1.10;1.10;;;19.40;84.70;;;;;;5001743;28;20037;-79
2023/05/03 00:28:47;;;;;;;1.10;1.10;;;19.40;84.70;;;;;;5003759;28;20042;-79
2023/05/03 00:31:12;;;;;;;0.85;0.85;;;19.30;84.60;;;;;;5003900;28;20076;-78
2023/05/03 00:33:38;;;;;;;0.90;0.90;;;19.30;84.60;;;;;;5008672;28;20045;-79
2023/05/03 00:36:13;;;;;;;1.20;1.10;;;19.30;84.60;;;;;;5008014;28;20049;-79
2023/05/03 00:38:39;;;;;;;0.80;0.80;;;19.30;84.60;;;;;;5003472;28;20534;-79
2023/05/03 00:41:05;;;;;;;0.90;0.90;;;19.30;84.60;;;;;;5004280;28;20117;-79
2023/05/03 00:43:31;;;;;;;1.00;1.00;;;19.30;84.60;;;;;;5005613;28;20729;-79
2023/05/03 00:45:58;;;;;;;0.98;0.98;;;19.30;84.60;;;;;;5023537;28;20038;-79
2023/05/03 00:48:23;;;;;;;1.25;1.20;;;19.30;84.70;;;;;;5006557;28;20045;-79
2023/05/03 00:50:49;;;;;;;1.23;1.13;;;19.30;84.70;;;;;;5026580;28;20072;-80
2023/05/03 00:53:15;;;;;;;1.08;1.08;;;19.30;84.70;;;;;;5005183;28;20415;-79
2023/05/03 00:55:40;;;;;;;1.15;1.15;;;19.30;84.70;;;;;;5005103;28;20113;-79
2023/05/03 00:58:06;;;;;;;1.40;1.30;;;19.30;84.70;;;;;;5007962;28;20515;-79
2023/05/03 01:00:31;;;;;;;1.48;0.90;;;19.30;84.70;;;;;;5009273;28;20515;-79
2023/05/03 01:02:57;;;;;;;1.25;1.15;;;19.30;84.80;;;;;;5007149;28;20410;-79
2023/05/03 01:05:23;;;;;;;0.80;0.80;;;19.30;84.80;;;;;;5008445;28;20579;-79
2023/05/03 01:07:55;;;;;;;0.85;0.85;;;19.30;84.80;;;;;;5006727;28;20061;-79
2023/05/03 01:10:33;;;;;;;0.90;0.90;;;19.30;84.80;;;;;;5016208;28;20053;-79
2023/05/03 01:13:14;;;;;;;1.17;1.10;;;19.30;84.70;;;;;;5006680;28;20065;-79
2023/05/03 01:15:59;;;;;;;0.95;0.95;;;19.30;84.80;;;;;;5007150;28;20045;-79
2023/05/03 01:18:31;;;;;;;0.85;0.85;;;19.30;84.80;;;;;;5003873;28;20072;-79
2023/05/03 01:20:58;;;;;;;0.98;0.98;;;19.30;84.80;;;;;;5004454;28;20069;-79
2023/05/03 01:23:45;;;;;;;1.08;1.00;;;19.20;84.70;;;;;;5032173;28;20049;-78
2023/05/03 01:26:18;;;;;;;0.90;0.90;;;19.30;84.80;;;;;;5028194;28;20533;-79
2023/05/03 01:28:43;;;;;;;0.93;0.93;;;19.20;84.70;;;;;;5006468;28;20042;-80
2023/05/03 01:31:09;;;;;;;0.82;0.82;;;19.30;84.70;;;;;;5007537;28;20034;-79
2023/05/03 01:33:48;;;;;;;1.05;1.00;;;19.30;84.70;;;;;;5008958;28;20093;-78
2023/05/03 01:36:33;;;;;;;1.05;1.00;;;19.20;84.70;;;;;;5023613;28;20100;-78
2023/05/03 01:39:05;;;;;;;1.08;1.08;;;19.20;84.60;;;;;;5007362;28;20037;-78
2023/05/03 01:41:31;;;;;;;0.98;0.98;;;19.20;84.60;;;;;;5003196;28;20032;-79
2023/05/03 01:43:56;;;;;;;0.90;0.90;;;19.20;84.60;;;;;;5014831;28;20133;-78
2023/05/03 01:46:22;;;;;;;0.90;0.90;;;19.20;84.70;;;;;;5005007;28;20045;-78
2023/05/03 01:48:47;;;;;;;0.90;0.90;;;19.20;84.70;;;;;;5006020;28;20054;-78
2023/05/03 01:51:13;;;;;;;0.90;0.90;;;19.20;84.70;;;;;;5007508;28;20527;-78
2023/05/03 01:53:40;;;;;;;1.20;1.17;;;19.20;84.60;;;;;;5001853;28;20418;-78
2023/05/03 01:56:07;;;;;;;0.95;0.90;;;19.20;85.50;;;;;;5005939;28;20049;-79
2023/05/03 01:58:32;;;;;;;0.98;0.98;;;19.20;84.70;;;;;;5020549;28;20531;-79
2023/05/03 02:00:58;;;;;;;0.73;0.73;;;19.20;84.60;;;;;;5007284;28;20042;-79
2023/05/03 02:03:24;;;;;;;0.85;0.85;;;19.20;84.70;;;;;;5005148;28;20096;-78
2023/05/03 02:05:49;;;;;;;0.88;0.88;;;19.20;84.70;;;;;;5000370;28;20057;-79
2023/05/03 02:08:15;;;;;;;0.80;0.80;;;19.20;84.60;;;;;;5005847;28;20045;-78
2023/05/03 02:10:43;;;;;;;1.00;1.00;;;19.20;84.70;;;;;;5031029;28;20103;-78
2023/05/03 02:13:08;;;;;;;0.88;0.88;;;19.10;84.60;;;;;;5005549;28;20038;-78
2023/05/03 02:15:34;;;;;;;1.00;1.00;;;19.20;84.70;;;;;;5005408;28;20105;-78
2023/05/03 02:18:01;;;;;;;1.00;1.00;;;19.10;84.70;;;;;;5004589;28;20100;-79
2023/05/03 02:20:26;;;;;;;0.80;0.80;;;19.20;84.60;;;;;;5006741;28;20066;-79
2023/05/03 02:22:52;;;;;;;0.82;0.82;;;19.20;84.60;;;;;;5004143;28;20072;-79
2023/05/03 02:25:18;;;;;;;0.80;0.80;;;19.10;84.60;;;;;;5005000;28;20408;-79
2023/05/03 02:27:43;;;;;;;1.33;1.23;;;19.10;84.70;;;;;;5008307;28;20121;-79
2023/05/03 02:30:09;;;;;;;1.00;1.00;;;19.10;84.60;;;;;;5005735;28;20081;-79
2023/05/03 02:32:35;;;;;;;0.90;0.90;;;19.10;84.60;;;;;;5003202;28;20064;-79
2023/05/03 02:35:00;;;;;;;0.70;0.68;;;19.10;84.60;;;;;;5005757;28;20046;-79
2023/05/03 02:37:26;;;;;;;0.70;0.70;;;19.10;84.60;;;;;;5000332;28;20459;-79
2023/05/03 02:39:51;;;;;;;0.90;0.90;;;19.10;84.60;;;;;;5006016;28;20488;-79
2023/05/03 02:42:17;;;;;;;0.90;0.90;;;19.10;84.60;;;;;;5018698;28;20038;-79
2023/05/03 02:44:45;;;;;;;0.70;0.70;;;19.10;84.70;;;;;;5005915;28;20069;-79
2023/05/03 02:47:10;;;;;;;0.90;0.90;;;19.10;84.60;;;;;;5006093;28;20149;-78
2023/05/03 02:49:36;;;;;;;0.98;0.98;;;19.10;84.60;;;;;;5002472;28;20121;-79
2023/05/03 02:52:02;;;;;;;0.60;0.60;;;19.10;84.60;;;;;;5003854;28;20045;-79
2023/05/03 02:54:27;;;;;;;0.77;0.77;;;19.10;84.60;;;;;;5007190;28;20447;-79
2023/05/03 02:56:53;;;;;;;1.00;1.00;;;19.10;84.60;;;;;;5000816;28;20053;-79
2023/05/03 02:59:19;;;;;;;0.68;0.68;;;19.10;84.60;;;;;;5006530;28;20030;-79
2023/05/03 03:01:45;;;;;;;0.88;0.88;;;19.10;84.60;;;;;;5006737;28;20033;-79
2023/05/03 03:04:11;;;;;;;0.82;0.82;;;19.10;85.30;;;;;;5004470;28;20043;-78
2023/05/03 03:06:36;;;;;;;0.90;0.90;;;19.00;84.50;;;;;;5007265;28;20582;-78
2023/05/03 03:09:03;;;;;;;0.93;0.93;;;19.10;84.60;;;;;;5003001;28;20121;-78
2023/05/03 03:11:28;;;;;;;0.95;0.95;;;19.10;84.60;;;;;;5004052;28;20145;-78
2023/05/03 03:13:54;;;;;;;0.80;0.80;;;19.10;84.60;;;;;;5003383;28;20475;-79
2023/05/03 03:16:20;;;;;;;0.90;0.90;;;19.00;84.60;;;;;;5002960;28;20044;-79
2023/05/03 03:18:45;;;;;;;0.75;0.75;;;19.10;85.40;;;;;;5004713;28;20121;-79
2023/05/03 03:21:11;;;;;;;0.90;0.90;;;19.00;84.60;;;;;;5001898;28;20061;-78
2023/05/03 03:23:36;;;;;;;0.80;0.80;;;19.00;84.50;;;;;;5017165;28;20435;-78
2023/05/03 03:26:02;;;;;;;0.70;0.70;;;19.00;84.50;;;;;;5004822;28;20057;-79
2023/05/03 03:28:28;;;;;;;0.70;0.70;;;19.10;84.60;;;;;;5006392;28;20507;-78
2023/05/03 03:30:53;;;;;;;0.90;0.90;;;19.00;84.60;;;;;;5001790;28;20056;-79
2023/05/03 03:33:19;;;;;;;0.88;0.88;;;19.00;84.50;;;;;;5008401;28;20050;-79
2023/05/03 03:35:45;;;;;;;0.90;0.90;;;19.00;85.30;;;;;;5004604;28;20068;-79
2023/05/03 03:38:11;;;;;;;0.73;0.73;;;19.00;84.50;;;;;;5004109;28;20132;-79
2023/05/03 03:40:36;;;;;;;0.93;0.93;;;19.00;84.50;;;;;;5004759;28;20467;-79
2023/05/03 03:43:02;;;;;;;1.33;0.80;;;19.00;84.50;;;;;;5018431;28;20422;-79
2023/05/03 03:45:27;;;;;;;0.50;0.50;;;19.00;84.50;;;;;;5006665;28;20042;-79
2023/05/03 03:47:53;;;;;;;1.25;0.93;;;19.00;84.50;;;;;;5004431;28;20143;-79
2023/05/03 03:50:19;;;;;;;0.70;0.70;;;19.00;84.50;;;;;;5004120;28;20042;-78
2023/05/03 03:52:44;;;;;;;0.88;0.88;;;19.00;84.50;;;;;;5017119;28;20152;-78
2023/05/03 03:55:10;;;;;;;0.63;0.63;;;19.00;84.50;;;;;;5003290;28;20038;-78
2023/05/03 03:57:35;;;;;;;0.80;0.80;;;19.00;84.50;;;;;;5005999;28;20475;-78
2023/05/03 04:00:07;;;;;;;0.60;0.60;;;19.00;84.50;;;;;;5003322;28;20480;-78
2023/05/03 04:02:32;;;;;;;0.63;0.63;;;19.00;84.50;;;;;;5001261;28;20053;-79
2023/05/03 04:04:58;;;;;;;0.73;0.73;;;19.00;84.40;;;;;;5000544;28;20046;-79
2023/05/03 04:07:23;;;;;;;0.85;0.70;;;19.00;84.50;;;;;;5002656;28;20555;-78
2023/05/03 04:09:49;;;;;;;0.85;0.80;;;19.00;84.50;;;;;;5001628;28;20061;-78
2023/05/03 04:12:15;;;;;;;0.70;0.70;;;19.00;84.40;;;;;;5006595;28;20479;-78
2023/05/03 04:14:40;;;;;;;0.73;0.73;;;19.00;85.30;;;;;;5000467;28;20077;-78
2023/05/03 04:17:06;;;;;;;1.08;0.90;;;19.00;84.40;;;;;;4999842;28;20066;-78
2023/05/03 04:19:31;;;;;;;0.70;0.68;;;19.00;84.50;;;;;;5004447;28;20042;-79
2023/05/03 04:21:57;;;;;;;0.85;0.85;;;19.00;84.40;;;;;;5003856;28;20058;-78
2023/05/03 04:24:23;;;;;;;0.80;0.80;;;19.00;84.50;;;;;;5005245;28;20500;-78
2023/05/03 04:26:50;;;;;;;0.82;0.82;;;19.00;84.50;;;;;;5002761;28;20052;-78
2023/05/03 04:29:17;;;;;;;1.00;0.85;;;19.00;84.40;;;;;;5003822;28;20045;-78
2023/05/03 04:31:42;;;;;;;0.80;0.80;;;18.90;84.30;;;;;;5005919;28;20050;-79
2023/05/03 04:34:09;;;;;;;0.80;0.80;;;18.90;84.30;;;;;;5001757;28;20104;-78
2023/05/03 04:36:36;;;;;;;0.90;0.90;;;19.00;84.40;;;;;;5006406;28;20046;-79
2023/05/03 04:39:02;;;;;;;0.80;0.80;;;18.90;84.40;;;;;;4991749;28;20415;-79
2023/05/03 04:41:27;;;;;;;1.13;1.00;;;19.00;84.30;;;;;;5006342;28;20050;-79
2023/05/03 04:43:53;;;;;;;0.90;0.90;;;19.00;84.30;;;;;;5002337;28;20077;-79
2023/05/03 04:46:19;;;;;;;0.98;0.98;;;18.90;84.30;;;;;;5003744;28;20043;-79
2023/05/03 04:48:44;;;;;;;0.85;0.85;;;19.00;84.40;;;;;;5005627;28;20034;-79
2023/05/03 04:51:10;;;;;;;1.10;1.10;;;18.90;85.00;;;;;;5003141;28;20042;-80
2023/05/03 04:53:36;;;;;;;0.80;0.80;;;18.90;84.30;;;;;;4997885;28;20061;-79
2023/05/03 04:56:04;;;;;;;1.15;1.10;;;19.00;84.30;;;;;;4994218;28;20054;-79
2023/05/03 04:58:30;;;;;;;0.80;0.80;;;19.00;84.30;;;;;;4649936;28;10000127;-78
2023/05/03 05:00:55;;;;;;;1.00;1.00;;;19.00;84.30;;;;;;4999019;28;20096;-79
2023/05/03 05:03:21;;;;;;;0.95;0.95;;;19.00;84.10;;;;;;5003842;28;20045;-77
2023/05/03 05:05:46;;;;;;;1.45;1.40;;;19.00;84.00;;;;;;4995871;28;20057;-79
2023/05/03 05:08:12;;;;;;;1.17;1.17;;;19.00;83.90;;;;;;5000277;28;20045;-83
2023/05/03 05:10:40;;;;;;;1.13;1.13;;;18.90;84.00;;;;;;4987430;28;20049;-86
2023/05/03 05:13:06;;;;;;;1.13;1.10;;;19.00;84.10;;;;;;5001565;28;20517;-81
2023/05/03 05:15:31;;;;;;;1.13;1.10;;;19.00;84.00;;;;;;5031236;28;20515;-84
2023/05/03 05:17:57;;;;;;;1.05;1.05;;;19.00;84.00;;;;;;5001666;28;20087;-82
2023/05/03 05:20:22;;;;;;;2.05;1.23;;;19.00;84.00;;;;;;5002280;28;20384;-80
2023/05/03 05:22:51;;;;;;;1.00;1.00;;;19.00;84.20;;;;;;5004591;28;20057;-83
2023/05/03 05:25:20;;;;;;;0.98;0.98;;;19.00;84.80;;;;;;5001947;28;20048;-84
2023/05/03 05:27:45;;;;;;;1.00;1.00;;;19.00;84.00;;;;;;5009385;28;20029;-82
2023/05/03 05:30:11;;;;;;;1.08;1.00;;;19.00;84.10;;;;;;5015208;28;20038;-83
2023/05/03 05:32:36;;;;;;;1.10;1.10;;;19.00;84.10;;;;;;5003845;28;20046;-83
2023/05/03 05:35:02;;;;;;;1.08;1.00;;;19.00;84.20;;;;;;5005206;28;20545;-82
2023/05/03 05:37:28;;;;;;;0.90;0.90;;;19.00;84.20;;;;;;4997498;28;20114;-83
2023/05/03 05:39:54;;;;;;;0.95;0.95;;;19.00;84.10;;;;;;5008572;28;20037;-82
2023/05/03 05:42:19;;;;;;;1.10;1.10;;;19.00;84.20;;;;;;5008786;28;20034;-82
2023/05/03 05:44:45;;;;;;;1.10;1.10;;;19.00;84.40;;;;;;5007563;28;20206;-83
2023/05/03 05:47:21;;;;;;;2.95;1.02;;;19.00;84.70;;;;;;4747969;28;10000687;-82
2023/05/03 05:49:47;;;;;;;1.38;1.38;;;19.00;84.80;;;;;;5014063;28;20270;-84
2023/05/03 05:52:12;;;;;;;1.35;1.35;;;19.00;84.60;;;;;;5001923;28;20053;-83
2023/05/03 05:54:38;;;;;;;0.93;0.93;;;19.00;84.50;;;;;;5001328;28;20042;-85
2023/05/03 05:57:03;;;;;;;1.13;1.13;;;19.00;84.60;;;;;;5002493;28;20050;-83
2023/05/03 05:59:30;;;;;;;1.30;1.20;;;19.00;84.50;;;;;;5000686;28;20357;-84
2023/05/03 06:01:56;;;;;;;1.15;1.15;;;19.00;84.50;;;;;;5002697;28;20030;-83
2023/05/03 06:04:21;;;;;;;1.00;1.00;;;19.00;84.50;;;;;;5027722;28;20096;-83
2023/05/03 06:06:47;;;;;;;1.20;1.20;;;19.00;84.40;;;;;;5002355;28;20042;-83
2023/05/03 06:09:13;;;;;;;1.38;1.38;;;19.00;84.40;;;;;;5000753;28;20038;-82
2023/05/03 06:11:39;;;;;;;0.90;0.90;;;19.00;85.20;;;;;;5000836;28;20050;-83
2023/05/03 06:14:08;;;;;;;1.00;1.00;;;19.00;84.40;;;;;;5000574;28;20100;-82
2023/05/03 06:16:35;;;;;;;1.20;1.20;;;19.00;84.40;;;;;;4986044;28;21111;-84
2023/05/03 06:19:01;;;;;;;0.82;0.82;;;19.00;84.30;;;;;;5002714;28;20045;-82
2023/05/03 06:21:27;;;;;;;1.13;1.13;;;19.00;84.30;;;;;;5004040;28;20033;-85
2023/05/03 06:23:52;;;;;;;1.65;1.23;;;19.00;84.30;;;;;;4996731;28;20034;-84
2023/05/03 06:26:18;;;;;;;1.15;1.10;;;19.10;84.30;;;;;;5001581;28;20570;-84
2023/05/03 06:28:45;;;;;;;0.80;0.80;;;19.10;84.30;;;;;;5000595;28;20088;-84
2023/05/03 06:31:12;;;;;;;0.85;0.85;;;19.10;84.30;;;;;;4998343;28;20068;-83
2023/05/03 06:33:37;;;;;;;1.00;1.00;;;19.00;84.30;;;;;;5004760;28;20038;-80
2023/05/03 06:36:03;;;;;;;1.10;1.10;;;19.10;84.20;;;;;;4999826;28;20038;-83
2023/05/03 06:38:28;;;;;;;0.90;0.90;;;19.00;84.20;;;;;;4995407;28;20047;-84
2023/05/03 06:40:54;;;;;;;0.90;0.90;;;19.00;84.30;;;;;;5020315;28;20113;-85
2023/05/03 06:43:21;;;;;;;1.58;1.02;;;19.10;84.30;;;;;;4998692;28;20581;-84
2023/05/03 06:45:47;;;;;;;1.10;1.10;;;19.10;84.20;;;;;;5003852;28;20350;-84
2023/05/03 06:48:12;;;;;;;0.95;0.95;;;19.10;84.10;;;;;;4979794;28;20401;-86
2023/05/03 06:50:38;;;;;;;1.13;0.82;;;19.10;84.00;;;;;;4996676;28;20042;-85
2023/05/03 06:53:04;;;;;;;0.80;0.80;;;19.10;84.10;;;;;;4995578;28;20050;-82
2023/05/03 06:55:31;;;;;;;1.20;1.20;;;19.10;84.30;;;;;;4999749;28;20042;-81
2023/05/03 06:57:57;;;;;;;1.40;1.30;;;19.10;84.20;;;;;;4996043;28;20667;-82
2023/05/03 07:00:24;;;;;;;1.90;1.75;;;19.00;81.10;;;;;;5016894;28;20609;-82
2023/05/03 07:02:50;;;;;;;1.27;1.27;;;19.00;84.20;;;;;;5019794;28;20091;-81
2023/05/03 07:05:16;;;;;;;1.38;1.25;;;19.10;84.60;;;;;;5016779;28;20038;-81
2023/05/03 07:07:41;;;;;;;2.88;1.65;;;19.00;82.90;;;;;;5018562;28;20052;-80
2023/05/03 07:10:07;;;;;;;1.30;1.30;;;19.10;83.20;;;;;;5002548;28;20050;-80
2023/05/03 07:12:33;;;;;;;1.23;1.15;;;19.00;83.60;;;;;;5008108;28;20131;-79
2023/05/03 07:14:58;;;;;;;1.27;1.23;;;19.10;83.60;;;;;;5000307;28;20049;-81
2023/05/03 07:17:24;;;;;;;1.75;1.20;;;19.10;83.70;;;;;;5000517;28;20503;-79
2023/05/03 07:19:50;;;;;;;1.27;1.17;;;19.10;83.80;;;;;;5024920;28;20053;-80
2023/05/03 07:22:15;;;;;;;1.08;1.08;;;19.10;84.20;;;;;;5002892;28;20049;-80
2023/05/03 07:24:41;;;;;;;1.20;1.20;;;19.10;84.10;;;;;;4999847;28;20049;-79
2023/05/03 07:27:07;;;;;;;1.10;1.10;;;19.10;84.30;;;;;;5003113;28;20046;-80
2023/05/03 07:29:32;;;;;;;2.63;1.10;;;19.10;84.50;;;;;;5000121;28;20065;-83
2023/05/03 07:31:58;;;;;;;2.72;1.38;;;19.10;84.30;;;;;;5003068;28;20389;-80
2023/05/03 07:34:24;;;;;;;1.48;1.05;;;19.10;84.40;;;;;;5001662;28;20061;-80
2023/05/03 07:36:50;;;;;;;1.02;1.02;;;19.20;84.50;;;;;;5000292;28;20103;-80
2023/05/03 07:39:16;;;;;;;1.15;1.15;;;19.10;84.40;;;;;;5005291;28;20042;-79
2023/05/03 07:41:42;;;;;;;1.08;1.08;;;19.10;84.60;;;;;;5004469;28;20376;-80
2023/05/03 07:44:08;;;;;;;1.10;1.00;;;19.20;84.30;;;;;;5003496;28;20053;-81
2023/05/03 07:46:34;;;;;;;1.05;1.05;;;19.20;84.10;;;;;;5005084;28;20482;-81
2023/05/03 07:49:03;;;;;;;1.02;1.02;;;19.20;84.00;;;;;;5002385;28;20057;-81
2023/05/03 07:51:28;;;;;;;1.05;1.05;;;19.20;84.10;;;;;;5014298;28;20300;-81
2023/05/03 07:53:57;;;;;;;1.30;1.20;;;19.20;84.10;;;;;;4998155;28;20046;-81
2023/05/03 07:56:22;;;;;;;1.13;1.02;;;19.20;84.00;;;;;;5001148;28;20112;-80
2023/05/03 07:58:48;;;;;;;1.38;1.27;;;19.20;83.90;;;;;;5003946;28;20073;-81
2023/05/03 08:01:14;;;;;;;3.50;1.17;;;19.20;83.90;;;;;;5002765;28;20046;-81
2023/05/03 08:03:39;;;;;;;1.00;1.00;;;19.20;83.90;;;;;;5002193;28;20140;-81
2023/05/03 08:06:05;;;;;;;1.15;1.15;;;19.20;83.90;;;;;;5001865;28;20270;-81
2023/05/03 08:08:32;;;;;;;1.00;1.00;;;19.20;83.80;;;;;;5007703;28;20049;-81
2023/05/03 08:10:58;;;;;;;1.08;1.08;;;19.20;83.80;;;;;;5002916;28;20072;-81
2023/05/03 08:13:23;;;;;;;4.13;1.23;;;19.30;83.80;;;;;;5000714;28;20492;-81
2023/05/03 08:15:49;;;;;;;1.65;1.55;;;19.20;83.80;;;;;;5001246;28;20116;-81
2023/05/03 08:18:15;;;;;;;1.00;0.90;;;19.20;83.80;;;;;;5000579;28;20053;-81
2023/05/03 08:20:41;;;;;;;1.55;1.45;;;19.20;83.80;;;;;;5015562;28;20038;-81
2023/05/03 08:23:06;;;;;;;1.35;1.30;;;19.20;83.70;;;;;;4999296;28;20507;-81
2023/05/03 08:25:33;;;;;;;1.15;1.15;;;19.20;83.70;;;;;;4992528;28;20033;-81
2023/05/03 08:27:58;;;;;;;1.20;1.20;;;19.30;83.70;;;;;;4998671;28;20419;-81
2023/05/03 08:30:24;;;;;;;1.75;1.20;;;19.30;83.60;;;;;;5002526;28;20925;-81
2023/05/03 08:32:50;;;;;;;1.30;1.20;;;19.30;83.50;;;;;;5002167;28;20431;-81
2023/05/03 08:35:16;;;;;;;1.02;1.02;;;19.30;83.40;;;;;;5003321;28;20042;-81
2023/05/03 08:37:42;;;;;;;1.30;1.30;;;19.30;83.30;;;;;;5001861;28;20046;-81
2023/05/03 08:40:10;;;;;;;1.23;1.23;;;19.40;83.30;;;;;;4999039;28;20057;-81
2023/05/03 08:42:45;;;;;;;1.05;1.05;;;19.40;83.30;;;;;;5001632;28;20291;-81
2023/05/03 08:45:15;;;;;;;1.10;1.10;;;19.40;83.30;;;;;;5002957;28;20241;-81
2023/05/03 08:47:43;;;;;;;1.10;1.10;;;19.40;83.20;;;;;;4999262;28;20037;-81
2023/05/03 08:50:12;;;;;;;1.20;1.20;;;19.40;83.10;;;;;;5003849;28;20046;-80
2023/05/03 08:52:39;;;;;;;1.02;1.02;;;19.50;83.20;;;;;;5001859;28;20054;-82
2023/05/03 08:55:06;;;;;;;1.67;0.95;;;19.50;83.10;;;;;;5004918;28;20141;-81
2023/05/03 08:57:32;;;;;;;1.00;0.90;;;19.50;83.20;;;;;;5005138;28;20045;-81
2023/05/03 09:00:00;;;;;;;1.23;1.20;;;19.50;83.20;;;;;;5022379;28;20057;-81
2023/05/03 09:02:26;;;;;;;1.40;1.30;;;19.60;83.30;;;;;;5004108;28;20038;-81
2023/05/03 09:04:52;;;;;;;1.00;1.00;;;19.60;83.30;;;;;;5004873;28;20070;-81
2023/05/03 09:07:19;;;;;;;1.10;1.08;;;19.60;83.30;;;;;;5004290;28;20038;-81
2023/05/03 09:09:45;;;;;;;1.67;0.93;;;19.60;83.30;;;;;;5005002;28;20096;-81
2023/05/03 09:12:11;;;;;;;1.00;1.00;;;19.60;83.30;;;;;;5004008;28;20411;-80
2023/05/03 09:14:45;;;;;;;1.10;1.10;;;19.60;83.20;;;;;;5006966;28;20056;-81
2023/05/03 09:17:16;;;;;;;1.08;1.08;;;19.60;83.20;;;;;;5004076;28;20030;-80
2023/05/03 09:19:51;;;;;;;1.10;1.10;;;19.60;84.00;;;;;;5004347;28;20073;-81
2023/05/03 09:22:17;;;;;;;1.20;1.20;;;19.70;83.10;;;;;;5004593;28;20042;-81
2023/05/03 09:24:51;;;;;;;1.20;1.15;;;19.70;83.00;;;;;;5005757;28;20692;-81
2023/05/03 09:27:18;;;;;;;1.08;0.93;;;19.80;83.00;;;;;;5007020;28;20126;-81
2023/05/03 09:29:44;;;;;;;1.30;1.30;;;19.80;82.90;;;;;;4997578;28;20475;-81
2023/05/03 09:32:11;;;;;;;1.10;1.10;;;19.80;82.80;;;;;;5004820;28;20042;-81
2023/05/03 09:34:37;;;;;;;1.05;1.05;;;19.80;82.80;;;;;;5004414;28;20038;-82
2023/05/03 09:37:02;;;;;;;1.00;1.00;;;19.80;82.60;;;;;;5006170;28;20459;-81
2023/05/03 09:39:28;;;;;;;0.90;0.90;;;19.80;82.50;;;;;;5007567;28;20084;-81
2023/05/03 09:41:53;;;;;;;0.70;0.70;;;19.80;82.50;;;;;;5006893;28;20046;-81
2023/05/03 09:44:19;;;;;;;1.00;1.00;;;19.90;82.50;;;;;;5003104;28;20041;-81
2023/05/03 09:47:03;;;;;;;1.42;1.10;;;19.90;82.50;;;;;;5020981;28;20113;-81
2023/05/03 09:49:32;;;;;;;0.90;0.90;;;19.90;82.40;;;;;;5001762;28;20120;-81
2023/05/03 09:52:00;;;;;;;1.10;1.10;;;19.90;82.30;;;;;;5022084;28;20046;-81
2023/05/03 09:54:26;;;;;;;1.23;1.13;;;19.90;82.30;;;;;;5005853;28;20463;-81
2023/05/03 09:56:54;;;;;;;0.90;0.90;;;19.90;82.20;;;;;;5021062;28;20042;-82
2023/05/03 09:59:19;;;;;;;0.82;0.82;;;20.00;82.10;;;;;;5005909;28;20048;-81
2023/05/03 10:01:45;;;;;;;0.85;0.85;;;20.00;82.20;;;;;;5020112;28;20490;-81
2023/05/03 10:04:11;;;;;;;0.90;0.90;;;20.00;82.10;;;;;;5006652;28;20038;-81
2023/05/03 10:06:42;;;;;;;1.10;1.10;;;20.00;82.00;;;;;;5008149;28;20542;-81
2023/05/03 10:09:38;;;;;;;1.17;1.10;;;20.00;81.90;;;;;;5021370;28;20157;-81
2023/05/03 10:12:06;;;;;;;0.90;0.90;;;20.00;81.80;;;;;;5003044;28;20074;-81
2023/05/03 10:14:31;;;;;;;0.80;0.80;;;20.00;81.80;;;;;;5004675;28;20512;-81
2023/05/03 10:17:03;;;;;;;0.88;0.88;;;20.00;81.80;;;;;;5002599;28;20076;-81
2023/05/03 10:19:39;;;;;;;0.98;0.90;;;20.00;81.70;;;;;;5006544;28;20037;-81
2023/05/03 10:22:08;;;;;;;1.02;1.02;;;20.10;81.70;;;;;;5031477;28;20112;-81
2023/05/03 10:24:35;;;;;;;1.38;0.88;;;20.00;81.60;;;;;;4998426;28;20057;-81
2023/05/03 10:27:01;;;;;;;0.80;0.80;;;20.00;81.60;;;;;;5003537;28;20129;-82
2023/05/03 10:29:36;;;;;;;0.88;0.88;;;20.10;81.40;;;;;;5001076;28;20133;-83
2023/05/03 10:32:04;;;;;;;1.00;1.00;;;20.10;81.30;;;;;;5001701;28;20070;-84
2023/05/03 10:34:31;;;;;;;0.80;0.80;;;20.20;81.20;;;;;;5004394;28;20042;-83
2023/05/03 10:36:59;;;;;;;0.88;0.88;;;20.20;81.10;;;;;;4998591;28;20085;-81
2023/05/03 10:39:25;;;;;;;1.00;0.90;;;20.20;81.10;;;;;;5003499;28;20129;-80
2023/05/03 10:41:58;;;;;;;1.25;0.90;;;20.20;81.20;;;;;;5002768;28;20185;-82
2023/05/03 10:44:50;;;;;;;1.02;1.02;;;20.20;81.30;;;;;;5016299;28;20404;-81
2023/05/03 10:47:16;;;;;;;1.00;1.00;;;20.20;81.50;;;;;;4998578;28;20050;-80
2023/05/03 10:49:42;;;;;;;0.98;0.90;;;20.20;81.90;;;;;;5004797;28;20052;-83
2023/05/03 10:52:35;;;;;;;0.80;0.80;;;20.20;81.90;;;;;;4999353;28;20049;-79
2023/05/03 10:55:01;;;;;;;1.27;1.20;;;20.30;82.20;;;;;;5004643;28;20626;-81
2023/05/03 10:57:28;;;;;;;2.03;1.60;;;20.30;81.80;;;;;;5003410;28;20048;-80
2023/05/03 10:59:53;;;;;;;2.72;2.03;;;20.30;81.70;;;;;;5016228;28;20056;-84
2023/05/03 11:02:20;;;;;;;2.47;1.75;;;20.30;83.40;;;;;;5026548;28;20558;-80
2023/05/03 11:04:45;;;;;;;3.65;1.92;;;20.30;84.60;;;;;;5003820;28;20046;-84
2023/05/03 11:07:18;;;;;;;2.03;1.60;;;20.40;85.60;;;;;;5011113;28;20249;-80
2023/05/03 11:09:44;;;;;;;1.50;1.40;;;20.40;84.00;;;;;;5016791;28;20046;-83
2023/05/03 11:12:10;;;;;;;1.48;1.20;;;20.40;83.50;;;;;;5001826;28;20115;-82
2023/05/03 11:14:35;;;;;;;1.27;1.17;;;20.50;82.70;;;;;;5001447;28;20539;-81
2023/05/03 11:17:01;;;;;;;1.05;1.05;;;20.50;81.90;;;;;;5003519;28;20389;-81
2023/05/03 11:19:27;;;;;;;1.33;1.25;;;20.50;82.20;;;;;;5002218;28;20665;-84
2023/05/03 11:21:53;;;;;;;3.72;0.93;;;20.50;82.10;;;;;;5003253;28;20046;-81
2023/05/03 11:24:19;;;;;;;1.70;1.35;;;20.50;82.50;;;;;;5020239;28;20065;-85
2023/05/03 11:26:44;;;;;;;1.40;1.30;;;20.50;81.80;;;;;;5006857;28;20053;-89
2023/05/03 11:29:11;;;;;;;0.85;0.85;;;20.50;81.30;;;;;;5003943;28;20053;-87
2023/05/03 11:31:38;;;;;;;1.67;1.35;;;20.60;81.40;;;;;;5004065;28;20080;-87
2023/05/03 11:34:05;;;;;;;1.52;1.27;;;20.50;81.50;;;;;;5004058;28;20030;-86
2023/05/03 11:36:30;;;;;;;0.93;0.90;;;20.50;81.50;;;;;;5005911;28;20124;-85
2023/05/03 11:38:56;;;;;;;1.25;0.93;;;20.60;81.30;;;;;;5006036;28;20125;-86
2023/05/03 11:41:21;;;;;;;2.47;1.17;;;20.60;81.00;;;;;;4999992;28;20046;-88
2023/05/03 11:43:48;;;;;;;1.95;1.08;;;20.50;81.20;;;;;;5002698;28;20038;-88
2023/05/03 11:46:25;;;;;;;1.00;1.00;;;20.50;81.40;;;;;;5004317;28;20033;-88
2023/05/03 11:48:50;;;;;;;1.17;1.17;;;20.50;81.40;;;;;;5003815;28;20057;-88
2023/05/03 11:51:21;;;;;;;1.20;1.20;;;20.50;81.40;;;;;;5004111;28;20049;-84
2023/05/03 11:53:47;;;;;;;4.07;1.23;;;20.40;81.40;;;;;;5000521;28;20042;-85
2023/05/03 11:56:14;;;;;;;1.40;1.23;;;20.40;81.40;;;;;;5002996;28;20039;-86
2023/05/03 11:58:52;;;;;;;2.05;1.13;;;20.40;81.40;;;;;;5019463;28;21256;-85
2023/05/03 12:01:21;;;;;;;1.65;1.00;;;20.40;81.10;;;;;;5004072;28;20044;-84
2023/05/03 12:03:48;;;;;;;2.47;1.10;;;20.40;81.10;;;;;;5017003;28;20514;-83
2023/05/03 12:06:15;;;;;;;0.93;0.93;;;20.40;81.20;;;;;;5010122;28;20117;-83
2023/05/03 12:08:41;;;;;;;1.15;1.05;;;20.40;81.20;;;;;;4997103;28;20058;-84
2023/05/03 12:11:06;;;;;;;1.50;1.40;;;20.40;81.40;;;;;;5003118;28;20053;-83
2023/05/03 12:13:36;;;;;;;1.85;1.10;;;20.40;81.10;;;;;;5009661;28;20449;-83
2023/05/03 12:16:05;;;;;;;1.23;1.13;;;20.40;81.50;;;;;;5000830;28;20057;-83
2023/05/03 12:19:02;;;;;;;2.20;0.98;;;20.40;81.40;;;;;;5004315;28;20034;-83
2023/05/03 12:21:47;;;;;;;1.75;0.90;;;20.40;81.50;;;;;;5002490;28;20041;-83
2023/05/03 12:24:17;;;;;;;1.20;1.10;;;20.50;81.60;;;;;;5025462;28;20046;-84
2023/05/03 12:26:44;;;;;;;2.03;1.02;;;20.40;81.60;;;;;;5001180;28;20045;-84
2023/05/03 12:29:10;;;;;;;1.05;1.05;;;20.40;81.60;;;;;;5006818;28;20125;-83
2023/05/03 12:31:43;;;;;;;1.37;1.02;;;20.40;81.60;;;;;;4882885;28;10001269;-85
2023/05/03 12:34:08;;;;;;;0.88;0.88;;;20.40;81.60;;;;;;5003314;28;20275;-86
2023/05/03 12:36:34;;;;;;;1.27;1.00;;;20.40;81.80;;;;;;5011627;28;20615;-82
2023/05/03 12:39:00;;;;;;;1.85;1.17;;;20.40;81.60;;;;;;5011353;28;20129;-83
2023/05/03 12:41:28;;;;;;;1.40;1.30;;;20.40;81.70;;;;;;5002181;28;20766;-82
2023/05/03 12:43:55;;;;;;;1.33;1.15;;;20.40;81.90;;;;;;5018851;28;20042;-83
2023/05/03 12:46:22;;;;;;;1.35;1.00;;;20.40;81.90;;;;;;5001173;28;20033;-83